This is the latest recevied weather packets stored in our database for station/object F4LNO-10. If no packets are shown the sender has not sent any weather packets the latest 10 day(s).
| Time | Temp. | Humidity | Pressure | Rain* | Wind** | Luminosity | Snow |
|---|---|---|---|---|---|---|---|
| 1777201551 | 21.11° C | 71% | 1020 hPa | - | - | - | - |
| 1777200650 | 19.44° C | 78% | 1020 hPa | - | - | - | - |
| 1777199749 | 19.44° C | 79% | 1020 hPa | - | - | - | - |
| 1777198848 | 18.89° C | 78% | 1020 hPa | - | - | - | - |
| 1777197948 | 18.89° C | 78% | 1019.8 hPa | - | - | - | - |
| 1777197047 | 18.89° C | 77% | 1019.7 hPa | - | - | - | - |
| 1777196146 | 18.89° C | 77% | 1019.5 hPa | - | - | - | - |
| 1777195245 | 18.89° C | 74% | 1019.4 hPa | - | - | - | - |
| 1777194344 | 18.33° C | 75% | 1019.4 hPa | - | - | - | - |
| 1777193443 | 18.89° C | 74% | 1019.2 hPa | - | - | - | - |
| 1777192543 | 18.89° C | 74% | 1019.2 hPa | - | - | - | - |
| 1777191642 | 18.89° C | 74% | 1019 hPa | - | - | - | - |
| 1777190741 | 18.89° C | 73% | 1018.8 hPa | - | - | - | - |
| 1777189840 | 18.89° C | 73% | 1018.6 hPa | - | - | - | - |
| 1777188959 | 18.33° C | 74% | 1018.5 hPa | - | - | - | - |
| 1777188058 | 18.33° C | 73% | 1018.4 hPa | - | - | - | - |
| 1777187157 | 18.33° C | 73% | 1018.5 hPa | - | - | - | - |
| 1777186256 | 19.44° C | 69% | 1018.4 hPa | - | - | - | - |
| 1777185355 | 20.56° C | 66% | 1018.3 hPa | - | - | - | - |
| 1777184454 | 20.56° C | 66% | 1018.2 hPa | - | - | - | - |
| 1777183553 | 21.11° C | 65% | 1018 hPa | - | - | - | - |
| 1777182653 | 21.11° C | 65% | 1018 hPa | - | - | - | - |
| 1777181752 | 20.56° C | 66% | 1017.8 hPa | - | - | - | - |
| 1777180851 | 20.56° C | 66% | 1017.9 hPa | - | - | - | - |
| 1777179950 | 18.89° C | 73% | 1017.8 hPa | - | - | - | - |
* Rain since midnight (hover to see other rain measurements)
** Current wind speed in m/s (hover to see current wind gust speed)